createdAt,value
2022-12-08T20:13:34.799Z,10.23
2022-12-08T20:16:02.160Z,10.98
2022-12-08T20:18:29.660Z,9.45
2022-12-08T20:20:57.140Z,9.38
2022-12-08T20:23:24.315Z,15.48
2022-12-08T20:25:51.508Z,11.27
2022-12-08T20:28:19.244Z,7.75
2022-12-08T20:30:47.240Z,10.23
2022-12-08T20:35:41.597Z,10.65
2022-12-08T20:38:08.901Z,8.83
2022-12-08T20:40:35.619Z,8.55
2022-12-08T20:43:02.259Z,9.73
2022-12-08T20:45:28.910Z,7.88
2022-12-08T20:47:55.649Z,18.23
2022-12-08T20:50:22.298Z,15.18
2022-12-08T20:52:49.026Z,15.02
2022-12-08T20:55:15.967Z,10.52
2022-12-08T20:57:42.714Z,12.90
2022-12-08T21:00:09.716Z,10.57
2022-12-08T21:02:40.493Z,14.10
2022-12-08T21:05:10.366Z,12.27
2022-12-08T21:07:37.175Z,10.77
2022-12-08T21:10:04.203Z,11.18
2022-12-08T21:12:32.301Z,29.90
2022-12-08T21:14:59.017Z,52.80
2022-12-08T21:17:26.015Z,40.40
2022-12-08T21:19:52.824Z,41.25
2022-12-08T21:22:20.778Z,34.80
2022-12-08T21:24:47.549Z,33.15
2022-12-08T21:27:14.649Z,35.85
2022-12-08T21:29:41.421Z,31.55
2022-12-08T21:32:08.296Z,29.35
2022-12-08T21:34:35.518Z,28.10
2022-12-08T21:37:02.471Z,24.63
2022-12-08T21:39:29.202Z,29.48
2022-12-08T21:42:14.628Z,27.10
2022-12-08T21:44:41.425Z,26.95
2022-12-08T21:47:08.364Z,27.20
2022-12-08T21:49:35.093Z,26.33
2022-12-08T21:52:01.919Z,24.13
2022-12-08T21:54:28.679Z,28.45
2022-12-08T21:56:55.578Z,15.50
2022-12-08T21:59:22.307Z,18.60
2022-12-08T22:01:49.146Z,17.58
2022-12-08T22:04:16.033Z,20.33
2022-12-08T22:06:42.830Z,18.00
2022-12-08T22:09:11.917Z,18.45
2022-12-08T22:11:38.603Z,14.05
2022-12-08T22:14:08.392Z,20.52
2022-12-08T22:16:39.130Z,16.98
2022-12-08T22:19:06.105Z,11.40
